Alsen, ND

2:26 AM CST on November 28, 2014 (GMT -0600)
RAWS HAMPDEN ND US | Change Station
CLOSE
Current Station
Personal Weather Station
Location: Hampden, ND
Elevation: 1582 ft
Nearby Weather Stations
Active Advisory: Winter Weather Advisory

Elev 1582 ft 48.53 °N, 98.62 °W | Updated 28 minutes ago

Overcast
Overcast
6 °F
Feels Like -8 °F
N
10
Wind Variable Wind from SE
Gusts 14.0 mph

Today
High -- | Low -- °F
--% Chance of Precip.
Yesterday
High -- | Low -- °F
Precip. -- in
8:01 AM 4:42 PM
Waxing Crescent, 38% visible
Pressure 29.98 in
Visibility 10.0 miles
Clouds Overcast 100 ft
Windchill -8 °F
Dew Point 2 °F
Humidity 82%
Rainfall 0.00 in
Snow Depth Not available.
UV 0 out of 12
Pollen .10 out of 12
Air Quality Not available.
Flu Activity Not available.
METAR KD55 280815Z AUTO 13006KT 10SM OVC001 M14/M16 A2998 RMK AO2

More Conditions Fewer Conditions

Pressure 29.98 in
Visibility 10.0 miles
Clouds Overcast 100 ft
Windchill -8 °F
Dew Point 2 °F
Humidity 82%
Rainfall 0.00 in
Snow Depth Not available.
UV 0 out of 12
Pollen .10 out of 12
Air Quality Not available.
Flu Activity Not available.
METAR KD55 280815Z AUTO 13006KT 10SM OVC001 M14/M16 A2998 RMK AO2

More Conditions Fewer Conditions

10-Day Weather Forecast

Almanac

Astronomy

Nov. 28, 2014 Rise Set
Actual Time
Civil Twilight
Nautical Twilight
Astronomical Twilight
Moon
Length of Visible Light
Length of Day
Tomorrow will be .
, % of the Moon is Illuminated

Today's Extremes

State Highs State Lows

Community

WunderPhotos

Upload Photos

1,774,191 photos uploaded!

WunderBlogs® & News

Nearby

Air Quality

  Air Quality AQ Index Pollutant
Not available.

Snow Depth

Station Depth Elevation

Earthquake Activity

City Distance Mag. Time & Date
Minimum magnitude displayed is 2.5.

Coastal Water Temperatures

Place Temperature

Nearby Weather Stations